• Join FlightAware (Why Join?)
  • Login
  • US Flag 
12:43PM EDT


 

Airport Tracker/Info


-or-


 

Live Flight TrackerFlight Track Log ✈ N960DL ✈ 28-Apr-2013 ✈ KBDL - KATL

Flight Track Log - Related Links

Times and Time Zones

All times are in EDT time to prevent confusion due to time zone crossing. See the N960DL flight status page for this flight to view local times or setup timezone preferences in your user account.

Time Position Orientation Groundspeed Altitude Reporting Facility
EDT Latitude Longitude Course Direction KTS MPH feet Rate Location/Type
04:34PM 41.9292 -72.7025 242° Southwest 148 170 1,000  Level Boston Center
04:36PM 41.9206 -72.7833 262° West 191 220 2,700 2,040 Climbing Boston Center
04:37PM 41.9130 -73.1168 262° West  Level FlightAware Approximate
04:37PM 41.9078 -72.8808 260° West 226 260 5,500  Level Boston Center
04:38PM 41.9000 -73.2607 270° West  Level FlightAware Approximate
04:38PM 41.9094 -72.9814 271° West 242 278 8,500  Level Boston Center
04:39PM 41.8561 -73.3878 236° Southwest  Level FlightAware Approximate
04:39PM 41.9131 -73.0761 273° West 272 313 10,600  Level Boston Center
04:40PM 41.8016 -73.5128 242° Southwest  Level FlightAware Approximate
04:40PM 41.9122 -73.2100 270° West 316 364 11,800  Level Boston Center
04:41PM 41.8947 -73.3325 259° West 360 414 13,000 1,920 Climbing Boston Center
04:42PM 41.8331 -73.4625 238° Southwest 386 444 15,700 2,400 Climbing Boston Center
04:43PM 41.7608 -73.5978 234° Southwest 405 466 17,800 1,860 Climbing Boston Center
04:44PM 41.6519 -73.6597 203° Southwest 409 471 19,500 2,100 Climbing Boston Center
04:45PM 41.5556 -73.6994 197° South 409 471 22,000 2,220 Climbing Boston Center
04:46PM 41.4111 -73.7642 199° South 386 444 24,600 1,860 Climbing New York Center
04:47PM 41.3175 -73.8372 210° Southwest 392 451 26,300 1,260 Climbing New York Center
04:48PM 41.2461 -73.9444 228° Southwest 384 442 27,200 780 Climbing New York Center
04:49PM 41.1700 -74.0567 228° Southwest 391 450 27,900 720 Climbing New York Center
04:50PM 41.0961 -74.1714 230° Southwest 414 476 28,700 960 Climbing New York Center
04:51PM 41.0197 -74.2886 229° Southwest 421 484 29,900 600 Climbing New York Center
04:52PM 40.9472 -74.4083 231° Southwest 426 490 30,000 300 Climbing New York Center
04:53PM 40.8728 -74.5250 230° Southwest 420 483 30,600 780 Climbing New York Center
04:54PM 40.7981 -74.6417 230° Southwest 420 483 31,700 660 Climbing New York Center
04:55PM 40.7275 -74.7608 232° Southwest 420 483 32,000 120 Climbing New York Center
04:56PM 40.6569 -74.8744 231° Southwest 415 478 32,000  Level New York Center
04:57PM 40.5864 -74.9875 231° Southwest 415 478 32,000  Level New York Center
04:58PM 40.5156 -75.1006 231° Southwest 415 478 32,000  Level New York Center
04:59PM 40.4425 -75.2161 230° Southwest 415 478 32,000  Level New York Center
05:00PM 40.3733 -75.3314 232° Southwest 415 478 32,000  Level New York Center
05:01PM 40.3003 -75.4408 229° Southwest 415 478 32,000  Level New York Center
05:02PM 40.2358 -75.5453 231° Southwest 420 483 32,000  Level New York Center
05:03PM 40.1725 -75.6633 235° Southwest 415 478 32,000  Level New York Center
05:04PM 40.1050 -75.7833 234° Southwest 410 472 32,000  Level New York Center
05:05PM 40.0333 -75.8950 230° Southwest 410 472 32,000  Level New York Center
05:06PM 39.9639 -76.0061 231° Southwest 410 472 32,000  Level New York Center
05:07PM 39.8858 -76.1194 228° Southwest 410 472 32,000  Level New York Center
05:08PM 39.8161 -76.2303 231° Southwest 410 472 32,000  Level New York Center
05:10PM 39.6686 -76.4758 232° Southwest 404 465 32,000  Level Washington Center
05:11PM 39.5908 -76.5825 227° Southwest 404 465 32,000  Level Washington Center
05:12PM 39.5211 -76.6892 230° Southwest 404 465 32,000  Level Washington Center
05:13PM 39.4533 -76.7983 231° Southwest 399 459 32,000  Level Washington Center
05:14PM 39.3856 -76.9047 231° Southwest 399 459 32,000  Level Washington Center
05:15PM 39.3156 -77.0106 229° Southwest 399 459 32,000 -720 Level Washington Center
05:16PM 39.2456 -77.1192 230° Southwest 399 459 30,600 -1,740 Descending Washington Center
05:17PM 39.1733 -77.2275 229° Southwest 399 459 28,600 -1,320 Descending Washington Center
05:18PM 39.1028 -77.3383 231° Southwest 399 459 28,000 -300 Descending Washington Center
05:19PM 39.0306 -77.4461 229° Southwest 399 459 28,000  Level Washington Center
05:20PM 38.9600 -77.5564 231° Southwest 399 459 28,000  Level Washington Center
05:21PM 38.8936 -77.6506 228° Southwest 399 459 28,000  Level Washington Center
05:22PM 38.8208 -77.7631 230° Southwest 405 466 28,000  Level Washington Center
05:23PM 38.7481 -77.8728 230° Southwest 412 474 28,000  Level Washington Center
05:24PM 38.6750 -77.9797 229° Southwest 407 468 28,000  Level Washington Center
05:25PM 38.6019 -78.0889 229° Southwest 407 468 28,000  Level Washington Center
05:26PM 38.5286 -78.1978 229° Southwest 407 468 28,000  Level Washington Center
05:27PM 38.4575 -78.3042 230° Southwest 402 463 28,000  Level Washington Center
05:28PM 38.3842 -78.4100 229° Southwest 402 463 28,000  Level Washington Center
05:29PM 38.3150 -78.5133 230° Southwest 396 456 28,000  Level Washington Center
05:30PM 38.2478 -78.6136 230° Southwest 391 450 28,000  Level Washington Center
05:31PM 38.1764 -78.7164 229° Southwest 391 450 28,000  Level Washington Center
05:32PM 38.1047 -78.8192 228° Southwest 391 450 28,000  Level Washington Center
05:33PM 38.0289 -78.9292 229° Southwest 396 456 28,000  Level Washington Center
05:34PM 37.9592 -79.0289 228° Southwest 396 456 28,000  Level Washington Center
05:35PM 37.8919 -79.1231 228° Southwest 385 443 28,000  Level Washington Center
05:36PM 37.8222 -79.2197 228° Southwest 379 436 28,000  Level Washington Center
05:37PM 37.7592 -79.3033 226° Southwest 379 436 28,000  Level Washington Center
05:38PM 37.6875 -79.3969 226° Southwest 379 436 28,000  Level Washington Center
05:39PM 37.6131 -79.5033 229° Southwest 379 436 28,000  Level Washington Center
05:40PM 37.5519 -79.5892 228° Southwest 379 436 28,000  Level Washington Center
05:41PM 37.4753 -79.6925 227° Southwest 372 428 28,000  Level Washington Center
05:42PM 37.4139 -79.7833 230° Southwest 377 434 28,000  Level Washington Center
05:43PM 37.3436 -79.8761 226° Southwest 377 434 28,000  Level Washington Center
05:45PM 37.1833 -80.0897 227° Southwest 365 420 28,000  Level Atlanta Center
05:46PM 37.1156 -80.1842 228° Southwest 365 420 28,000  Level Atlanta Center
05:47PM 37.0453 -80.2786 227° Southwest 365 420 28,000  Level Atlanta Center
05:48PM 36.9753 -80.3703 226° Southwest 365 420 28,000  Level Atlanta Center
05:49PM 36.8969 -80.4725 226° Southwest 365 420 28,000  Level Atlanta Center
05:50PM 36.8286 -80.5636 227° Southwest 365 420 28,000  Level Atlanta Center
05:51PM 36.7603 -80.6547 227° Southwest 365 420 28,000  Level Atlanta Center
05:52PM 36.6919 -80.7458 227° Southwest 359 413 28,000  Level Atlanta Center
05:53PM 36.6233 -80.8392 228° Southwest 359 413 28,000  Level Atlanta Center
05:54PM 36.5569 -80.9269 227° Southwest 359 413 28,000  Level Atlanta Center
05:55PM 36.4861 -81.0203 227° Southwest 354 407 28,000  Level Atlanta Center
05:56PM 36.4194 -81.1078 227° Southwest 354 407 28,000  Level Atlanta Center
05:57PM 36.3508 -81.2006 227° Southwest 359 413 28,000  Level Atlanta Center
05:58PM 36.2819 -81.2931 227° Southwest 359 413 28,000  Level Atlanta Center
05:59PM 36.2111 -81.3831 226° Southwest 359 413 28,000  Level Atlanta Center
06:00PM 36.1419 -81.4753 227° Southwest 359 413 28,000  Level Atlanta Center
06:01PM 36.0728 -81.5622 225° Southwest 359 413 28,000  Level Atlanta Center
06:02PM 36.0017 -81.6517 226° Southwest 358 412 28,000  Level Atlanta Center
06:03PM 35.9306 -81.7461 227° Southwest 358 412 28,000  Level Atlanta Center
06:04PM 35.8633 -81.8350 227° Southwest 358 412 28,000  Level Atlanta Center
06:05PM 35.7939 -81.9242 226° Southwest 358 412 28,000  Level Atlanta Center
06:06PM 35.7328 -82.0025 226° Southwest 358 412 28,000  Level Atlanta Center
06:07PM 35.6631 -82.0911 226° Southwest 358 412 28,000  Level Atlanta Center
06:08PM 35.5936 -82.1822 227° Southwest 353 406 28,000  Level Atlanta Center
06:09PM 35.5219 -82.2731 226° Southwest 359 413 28,000  Level Atlanta Center
06:10PM 35.4522 -82.3611 226° Southwest 359 413 28,000 -480 Level Atlanta Center
06:11PM 35.3806 -82.4519 226° Southwest 364 419 27,100 -1,260 Descending Atlanta Center
06:12PM 35.3044 -82.5397 223° Southwest 370 426 25,500 -1,500 Descending Atlanta Center
06:13PM 35.2261 -82.6200 220° Southwest 370 426 24,100 -780 Descending Atlanta Center
06:14PM 35.1456 -82.7103 223° Southwest 382 440 24,000 -60 Descending Atlanta Center
06:15PM 35.0631 -82.7978 221° Southwest 389 448 24,000  Level Atlanta Center
06:16PM 34.9825 -82.8903 223° Southwest 389 448 24,000  Level Atlanta Center
06:17PM 34.8978 -82.9750 219° Southwest 395 455 24,000  Level Atlanta Center
06:18PM 34.8131 -83.0722 223° Southwest 395 455 24,000  Level Atlanta Center
06:19PM 34.7261 -83.1592 219° Southwest 395 455 24,000  Level Atlanta Center
06:20PM 34.6433 -83.2511 222° Southwest 400 460 24,000  Level Atlanta Center
06:21PM 34.5603 -83.3425 222° Southwest 400 460 24,000 -600 Level Atlanta Center
06:22PM 34.4772 -83.4289 221° Southwest 406 467 22,900 -1,560 Descending Atlanta Center
06:23PM 34.3942 -83.5178 221° Southwest 406 467 20,900 -2,280 Descending Atlanta Center
06:24PM 34.3172 -83.6011 222° Southwest 395 455 18,400 -2,460 Descending Atlanta Center
06:25PM 34.2425 -83.6769 220° Southwest 369 425 16,000 -2,100 Descending Atlanta Center
06:26PM 34.1781 -83.7450 221° Southwest 357 411 14,300 -1,020 Descending Atlanta Center
06:27PM 34.1156 -83.8131 222° Southwest 334 384 14,000 -180 Descending Atlanta Center
06:28PM 34.0614 -83.8733 223° Southwest 290 334 14,000  Level Atlanta Center
06:29PM 34.0697 -83.9561 277° West 243 280 14,000  Level Atlanta Center
06:30PM 34.1511 -83.9533 North 218 251 14,000  Level Atlanta Center
06:31PM 34.2261 -83.8781 40° Northeast 287 330 14,000  Level Atlanta Center
06:32PM 34.3011 -83.8100 37° Northeast 323 372 14,000  Level Atlanta Center
06:33PM 34.3617 -83.7242 49° Northeast 336 387 14,000  Level Atlanta Center
06:34PM 34.3069 -83.6514 132° Southeast 208 239 14,000 -360 Level Atlanta Center
06:35PM 34.2383 -83.7019 211° Southwest 148 170 13,300 -540 Descending Atlanta Center
06:36PM 34.1800 -83.7600 219° Southwest 249 287 13,000 -180 Descending Atlanta Center
06:37PM 34.1239 -83.8156 219° Southwest 261 300 13,000  Level Atlanta Center
06:38PM 34.0675 -83.8708 219° Southwest 261 300 13,000  Level Atlanta Center
06:39PM 34.0761 -83.9536 277° West 225 259 13,000  Level Atlanta Center
06:40PM 34.1575 -83.9458 North 166 191 13,000  Level Atlanta Center
06:41PM 34.2094 -83.8531 56° Northeast 244 281 13,000  Level Atlanta Center
06:42PM 34.1717 -83.7703 119° Southeast 236 272 13,000  Level Atlanta Center
06:43PM 34.1175 -83.8031 207° Southwest 148 170 13,000 -180 Level Atlanta Center
06:44PM 34.0675 -83.8708 228° Southwest 209 241 12,700 -540 Descending Atlanta Center
06:45PM 34.0333 -83.9000 215° Southwest 267 307 12,200 -420 Descending Atlanta TRACON
06:46PM 33.9667 -83.9833 226° Southwest 260 299 12,000 -120 Descending Atlanta TRACON
06:47PM 33.9333 -84.0333 231° Southwest 248 285 12,000  Level Atlanta TRACON
06:48PM 33.8833 -84.1000 228° Southwest 254 292 12,000  Level Atlanta TRACON
06:49PM 33.8500 -84.1667 239° Southwest 258 297 12,000  Level Atlanta TRACON
06:50PM 33.8000 -84.2333 228° Southwest 264 304 12,000 -120 Level Atlanta TRACON
06:51PM 33.7500 -84.3167 234° Southwest 260 299 11,800 -900 Descending Atlanta TRACON
06:52PM 33.7333 -84.4000 256° West 267 307 10,200 -1,560 Descending Atlanta TRACON
06:53PM 33.7333 -84.4833 270° West 266 306 8,500 -1,500 Descending Atlanta TRACON
06:54PM 33.7333 -84.5667 270° West 252 290 7,200 -1,500 Descending Atlanta TRACON